sensor_id;sensor_type;location;lat;lon;timestamp;pressure;altitude;pressure_sealevel;temperature;humidity
72423;BME280;60413;55.658;37.498;2023-03-01T00:00:42;98044.34;;;-6.40;100.00
72423;BME280;60413;55.658;37.498;2023-03-01T00:03:12;98068.25;;;-6.23;100.00
72423;BME280;60413;55.658;37.498;2023-03-01T00:05:45;98046.09;;;-6.32;100.00
72423;BME280;60413;55.658;37.498;2023-03-01T00:08:11;98085.09;;;-6.12;100.00
72423;BME280;60413;55.658;37.498;2023-03-01T00:10:37;98076.56;;;-6.21;100.00
72423;BME280;60413;55.658;37.498;2023-03-01T00:13:03;98078.81;;;-6.26;100.00
72423;BME280;60413;55.658;37.498;2023-03-01T00:15:31;98068.38;;;-6.32;100.00
72423;BME280;60413;55.658;37.498;2023-03-01T00:17:57;98051.50;;;-6.43;100.00
72423;BME280;60413;55.658;37.498;2023-03-01T00:20:23;98075.59;;;-6.28;100.00
72423;BME280;60413;55.658;37.498;2023-03-01T00:22:50;98075.09;;;-6.31;100.00
72423;BME280;60413;55.658;37.498;2023-03-01T00:25:16;98079.75;;;-6.27;100.00
72423;BME280;60413;55.658;37.498;2023-03-01T00:27:42;98045.59;;;-6.44;100.00
72423;BME280;60413;55.658;37.498;2023-03-01T00:30:08;98067.56;;;-6.25;100.00
72423;BME280;60413;55.658;37.498;2023-03-01T00:32:34;98068.38;;;-6.32;100.00
72423;BME280;60413;55.658;37.498;2023-03-01T00:35:00;98073.81;;;-6.36;100.00
72423;BME280;60413;55.658;37.498;2023-03-01T00:37:26;98065.63;;;-6.39;100.00
72423;BME280;60413;55.658;37.498;2023-03-01T00:39:52;98074.59;;;-6.35;100.00
72423;BME280;60413;55.658;37.498;2023-03-01T00:42:18;98078.94;;;-6.36;100.00
72423;BME280;60413;55.658;37.498;2023-03-01T00:44:44;98074.59;;;-6.35;100.00
72423;BME280;60413;55.658;37.498;2023-03-01T00:47:10;98065.94;;;-6.42;100.00
72423;BME280;60413;55.658;37.498;2023-03-01T00:49:36;98062.09;;;-6.46;100.00
72423;BME280;60413;55.658;37.498;2023-03-01T00:52:03;98076.50;;;-6.45;100.00
72423;BME280;60413;55.658;37.498;2023-03-01T00:54:29;98075.56;;;-6.44;100.00
72423;BME280;60413;55.658;37.498;2023-03-01T00:56:54;98039.44;;;-6.67;100.00
72423;BME280;60413;55.658;37.498;2023-03-01T00:59:20;98064.00;;;-6.48;100.00
72423;BME280;60413;55.658;37.498;2023-03-01T01:01:46;98060.75;;;-6.59;100.00
72423;BME280;60413;55.658;37.498;2023-03-01T01:04:13;98069.44;;;-6.43;100.00
72423;BME280;60413;55.658;37.498;2023-03-01T01:06:39;98072.00;;;-6.43;100.00
72423;BME280;60413;55.658;37.498;2023-03-01T01:09:09;98055.88;;;-6.36;100.00
72423;BME280;60413;55.658;37.498;2023-03-01T01:11:46;98063.69;;;-6.45;100.00
72423;BME280;60413;55.658;37.498;2023-03-01T01:14:13;98030.56;;;-6.81;100.00
72423;BME280;60413;55.658;37.498;2023-03-01T01:16:42;98068.63;;;-6.52;100.00
72423;BME280;60413;55.658;37.498;2023-03-01T01:19:10;98039.88;;;-6.72;100.00
72423;BME280;60413;55.658;37.498;2023-03-01T01:21:36;98064.94;;;-6.58;100.00
72423;BME280;60413;55.658;37.498;2023-03-01T01:24:04;98045.28;;;-6.83;100.00
72423;BME280;60413;55.658;37.498;2023-03-01T01:26:33;98074.69;;;-6.61;100.00
72423;BME280;60413;55.658;37.498;2023-03-01T01:29:04;98029.41;;;-6.87;100.00
72423;BME280;60413;55.658;37.498;2023-03-01T01:31:31;98015.09;;;-7.06;100.00
72423;BME280;60413;55.658;37.498;2023-03-01T01:34:00;97977.69;;;-7.33;100.00
72423;BME280;60413;55.658;37.498;2023-03-01T01:36:27;97990.28;;;-7.32;100.00
72423;BME280;60413;55.658;37.498;2023-03-01T01:38:57;98086.66;;;-6.70;100.00
72423;BME280;60413;55.658;37.498;2023-03-01T01:41:24;98057.44;;;-6.85;100.00
72423;BME280;60413;55.658;37.498;2023-03-01T01:46:59;98071.22;;;-6.86;100.00
72423;BME280;60413;55.658;37.498;2023-03-01T01:49:52;98076.84;;;-6.83;100.00
72423;BME280;60413;55.658;37.498;2023-03-01T01:52:29;98078.53;;;-6.92;100.00
72423;BME280;60413;55.658;37.498;2023-03-01T01:57:41;98070.00;;;-7.00;100.00
72423;BME280;60413;55.658;37.498;2023-03-01T02:00:16;98067.28;;;-6.99;100.00
72423;BME280;60413;55.658;37.498;2023-03-01T02:02:44;98061.88;;;-6.96;100.00
72423;BME280;60413;55.658;37.498;2023-03-01T02:05:20;98068.91;;;-6.98;100.00
72423;BME280;60413;55.658;37.498;2023-03-01T02:07:48;98061.22;;;-6.98;100.00
72423;BME280;60413;55.658;37.498;2023-03-01T02:10:20;98071.31;;;-6.96;100.00
72423;BME280;60413;55.658;37.498;2023-03-01T02:12:46;98058.78;;;-7.08;100.00
72423;BME280;60413;55.658;37.498;2023-03-01T02:15:12;98062.19;;;-6.99;100.00
72423;BME280;60413;55.658;37.498;2023-03-01T02:17:38;98055.22;;;-7.15;100.00
72423;BME280;60413;55.658;37.498;2023-03-01T02:20:19;98067.25;;;-7.07;100.00
72423;BME280;60413;55.658;37.498;2023-03-01T02:22:48;98058.28;;;-7.11;100.00
72423;BME280;60413;55.658;37.498;2023-03-01T02:30:48;98053.34;;;-7.31;100.00
72423;BME280;60413;55.658;37.498;2023-03-01T02:33:35;98045.75;;;-7.40;100.00
72423;BME280;60413;55.658;37.498;2023-03-01T02:36:30;98078.81;;;-7.29;100.00
72423;BME280;60413;55.658;37.498;2023-03-01T02:38:57;98062.09;;;-7.41;100.00
72423;BME280;60413;55.658;37.498;2023-03-01T02:41:26;98066.09;;;-7.39;100.00
72423;BME280;60413;55.658;37.498;2023-03-01T02:43:55;98065.81;;;-7.54;100.00
72423;BME280;60413;55.658;37.498;2023-03-01T02:46:25;98081.44;;;-7.39;100.00
72423;BME280;60413;55.658;37.498;2023-03-01T02:48:57;98053.78;;;-7.61;100.00
72423;BME280;60413;55.658;37.498;2023-03-01T02:57:04;98087.84;;;-7.43;100.00
72423;BME280;60413;55.658;37.498;2023-03-01T02:59:33;98075.31;;;-7.46;100.00
72423;BME280;60413;55.658;37.498;2023-03-01T03:02:08;98064.69;;;-7.59;100.00
72423;BME280;60413;55.658;37.498;2023-03-01T03:04:46;98072.06;;;-7.56;100.00
72423;BME280;60413;55.658;37.498;2023-03-01T03:07:12;98084.25;;;-7.50;100.00
72423;BME280;60413;55.658;37.498;2023-03-01T03:09:39;98087.78;;;-7.51;100.00
72423;BME280;60413;55.658;37.498;2023-03-01T03:12:05;98082.16;;;-7.55;100.00
72423;BME280;60413;55.658;37.498;2023-03-01T03:14:32;98080.75;;;-7.67;100.00
72423;BME280;60413;55.658;37.498;2023-03-01T03:17:00;98027.59;;;-7.99;100.00
72423;BME280;60413;55.658;37.498;2023-03-01T03:19:27;97994.78;;;-8.22;100.00
72423;BME280;60413;55.658;37.498;2023-03-01T03:21:56;98033.84;;;-7.94;100.00
72423;BME280;60413;55.658;37.498;2023-03-01T03:24:24;98004.44;;;-8.16;100.00
72423;BME280;60413;55.658;37.498;2023-03-01T03:26:51;98007.28;;;-8.19;100.00
72423;BME280;60413;55.658;37.498;2023-03-01T03:29:17;98037.38;;;-7.95;100.00
72423;BME280;60413;55.658;37.498;2023-03-01T03:31:45;98034.88;;;-8.05;100.00
72423;BME280;60413;55.658;37.498;2023-03-01T03:34:11;98057.38;;;-7.90;100.00
72423;BME280;60413;55.658;37.498;2023-03-01T03:36:43;97995.00;;;-8.33;100.00
72423;BME280;60413;55.658;37.498;2023-03-01T03:39:09;98009.25;;;-8.31;100.00
72423;BME280;60413;55.658;37.498;2023-03-01T03:41:35;98058.84;;;-8.06;100.00
72423;BME280;60413;55.658;37.498;2023-03-01T03:44:01;98044.38;;;-8.15;100.00
72423;BME280;60413;55.658;37.498;2023-03-01T03:46:27;98018.53;;;-8.30;100.00
72423;BME280;60413;55.658;37.498;2023-03-01T03:48:53;98073.38;;;-8.06;100.00
72423;BME280;60413;55.658;37.498;2023-03-01T03:51:19;98027.56;;;-8.35;100.00
72423;BME280;60413;55.658;37.498;2023-03-01T03:53:48;98073.25;;;-8.05;100.00
72423;BME280;60413;55.658;37.498;2023-03-01T03:56:14;98072.50;;;-7.97;100.00
72423;BME280;60413;55.658;37.498;2023-03-01T03:58:41;98047.81;;;-8.24;100.00
72423;BME280;60413;55.658;37.498;2023-03-01T04:01:07;98055.19;;;-8.21;100.00
72423;BME280;60413;55.658;37.498;2023-03-01T04:03:33;98003.06;;;-8.46;100.00
72423;BME280;60413;55.658;37.498;2023-03-01T04:06:01;98092.88;;;-7.87;100.00
72423;BME280;60413;55.658;37.498;2023-03-01T04:08:31;98098.81;;;-7.87;100.00
72423;BME280;60413;55.658;37.498;2023-03-01T04:11:00;98042.69;;;-8.24;100.00
72423;BME280;60413;55.658;37.498;2023-03-01T04:13:46;98080.91;;;-8.05;100.00
72423;BME280;60413;55.658;37.498;2023-03-01T04:16:12;98102.63;;;-7.91;100.00
72423;BME280;60413;55.658;37.498;2023-03-01T04:18:38;98052.63;;;-8.21;100.00
72423;BME280;60413;55.658;37.498;2023-03-01T04:21:04;98081.28;;;-7.99;100.00
72423;BME280;60413;55.658;37.498;2023-03-01T04:23:31;98103.34;;;-7.80;100.00
72423;BME280;60413;55.658;37.498;2023-03-01T04:26:00;98033.13;;;-8.22;100.00
72423;BME280;60413;55.658;37.498;2023-03-01T04:31:25;98097.44;;;-7.81;100.00
72423;BME280;60413;55.658;37.498;2023-03-01T04:36:52;98096.03;;;-7.13;100.00
72423;BME280;60413;55.658;37.498;2023-03-01T04:39:19;98030.41;;;-7.14;100.00
72423;BME280;60413;55.658;37.498;2023-03-01T04:41:47;98095.31;;;-6.20;100.00
72423;BME280;60413;55.658;37.498;2023-03-01T04:44:18;98042.13;;;-5.85;100.00
72423;BME280;60413;55.658;37.498;2023-03-01T04:46:55;98055.91;;;-5.29;100.00
72423;BME280;60413;55.658;37.498;2023-03-01T04:49:24;98133.66;;;-4.54;100.00
72423;BME280;60413;55.658;37.498;2023-03-01T04:51:51;98107.66;;;-4.68;100.00
72423;BME280;60413;55.658;37.498;2023-03-01T04:54:17;98144.97;;;-4.96;100.00
72423;BME280;60413;55.658;37.498;2023-03-01T04:56:43;98140.78;;;-5.80;100.00
72423;BME280;60413;55.658;37.498;2023-03-01T04:59:10;98150.16;;;-6.21;100.00
72423;BME280;60413;55.658;37.498;2023-03-01T05:01:39;98109.16;;;-6.56;100.00
72423;BME280;60413;55.658;37.498;2023-03-01T05:04:13;98093.09;;;-6.66;100.00
72423;BME280;60413;55.658;37.498;2023-03-01T05:06:43;98062.59;;;-6.77;100.00
72423;BME280;60413;55.658;37.498;2023-03-01T05:09:43;98069.03;;;-6.73;100.00
72423;BME280;60413;55.658;37.498;2023-03-01T05:12:19;98108.25;;;-6.38;100.00
72423;BME280;60413;55.658;37.498;2023-03-01T05:14:48;98091.78;;;-6.27;100.00
72423;BME280;60413;55.658;37.498;2023-03-01T05:17:20;98155.19;;;-5.87;100.00
72423;BME280;60413;55.658;37.498;2023-03-01T05:19:49;98107.72;;;-5.91;100.00
72423;BME280;60413;55.658;37.498;2023-03-01T05:22:20;98131.47;;;-5.72;100.00
72423;BME280;60413;55.658;37.498;2023-03-01T05:24:48;98140.81;;;-5.47;100.00
72423;BME280;60413;55.658;37.498;2023-03-01T05:27:22;98092.66;;;-5.86;100.00
72423;BME280;60413;55.658;37.498;2023-03-01T05:29:51;98069.84;;;-6.13;100.00
72423;BME280;60413;55.658;37.498;2023-03-01T05:32:38;98135.47;;;-5.86;100.00
72423;BME280;60413;55.658;37.498;2023-03-01T05:35:04;98160.16;;;-5.85;100.00
72423;BME280;60413;55.658;37.498;2023-03-01T05:37:31;98165.75;;;-5.90;100.00
72423;BME280;60413;55.658;37.498;2023-03-01T05:40:21;98090.28;;;-6.38;100.00
72423;BME280;60413;55.658;37.498;2023-03-01T05:42:53;98099.44;;;-6.36;100.00
72423;BME280;60413;55.658;37.498;2023-03-01T05:45:38;98084.28;;;-6.63;100.00
72423;BME280;60413;55.658;37.498;2023-03-01T05:48:20;98095.22;;;-6.53;100.00
72423;BME280;60413;55.658;37.498;2023-03-01T05:51:04;98089.97;;;-6.43;100.00
72423;BME280;60413;55.658;37.498;2023-03-01T05:53:37;98141.53;;;-5.96;100.00
72423;BME280;60413;55.658;37.498;2023-03-01T05:56:06;98142.66;;;-5.98;100.00
72423;BME280;60413;55.658;37.498;2023-03-01T05:58:45;98103.66;;;-6.18;100.00
72423;BME280;60413;55.658;37.498;2023-03-01T06:01:36;98173.22;;;-5.62;100.00
72423;BME280;60413;55.658;37.498;2023-03-01T06:04:10;98160.19;;;-5.69;100.00
72423;BME280;60413;55.658;37.498;2023-03-01T06:06:37;98160.69;;;-5.65;100.00
72423;BME280;60413;55.658;37.498;2023-03-01T06:09:17;98115.28;;;-5.81;100.00
72423;BME280;60413;55.658;37.498;2023-03-01T06:11:48;98102.59;;;-5.83;100.00
72423;BME280;60413;55.658;37.498;2023-03-01T06:14:15;98182.22;;;-5.17;100.00
72423;BME280;60413;55.658;37.498;2023-03-01T06:16:41;98198.44;;;-4.67;100.00
72423;BME280;60413;55.658;37.498;2023-03-01T06:19:10;98163.22;;;-4.58;100.00
72423;BME280;60413;55.658;37.498;2023-03-01T06:21:40;98130.81;;;-4.84;100.00
72423;BME280;60413;55.658;37.498;2023-03-01T06:24:07;98180.56;;;-4.52;100.00
72423;BME280;60413;55.658;37.498;2023-03-01T06:26:38;98133.31;;;-4.59;100.00
72423;BME280;60413;55.658;37.498;2023-03-01T06:29:09;98167.28;;;-4.24;100.00
72423;BME280;60413;55.658;37.498;2023-03-01T06:31:46;98182.72;;;-4.24;100.00
72423;BME280;60413;55.658;37.498;2023-03-01T06:34:15;98205.53;;;-3.42;100.00
72423;BME280;60413;55.658;37.498;2023-03-01T06:37:27;98184.34;;;-2.91;100.00
72423;BME280;60413;55.658;37.498;2023-03-01T06:40:55;98214.19;;;-1.33;100.00
72423;BME280;60413;55.658;37.498;2023-03-01T06:44:02;98209.97;;;-1.34;100.00
72423;BME280;60413;55.658;37.498;2023-03-01T06:50:29;98134.06;;;-1.91;100.00
72423;BME280;60413;55.658;37.498;2023-03-01T06:53:01;98161.72;;;-2.07;100.00
72423;BME280;60413;55.658;37.498;2023-03-01T06:55:33;98224.94;;;-1.66;100.00
72423;BME280;60413;55.658;37.498;2023-03-01T06:58:25;98122.81;;;-1.19;100.00
72423;BME280;60413;55.658;37.498;2023-03-01T07:01:09;98167.63;;;-0.62;100.00
72423;BME280;60413;55.658;37.498;2023-03-01T07:07:14;98186.59;;;-0.13;100.00
72423;BME280;60413;55.658;37.498;2023-03-01T07:13:14;98168.97;;;0.11;100.00
72423;BME280;60413;55.658;37.498;2023-03-01T07:19:01;98222.88;;;0.29;100.00
72423;BME280;60413;55.658;37.498;2023-03-01T07:24:32;98167.44;;;0.36;100.00
72423;BME280;60413;55.658;37.498;2023-03-01T07:29:50;98209.97;;;1.96;100.00
72423;BME280;60413;55.658;37.498;2023-03-01T07:32:21;98209.38;;;1.80;100.00
72423;BME280;60413;55.658;37.498;2023-03-01T07:34:53;98233.97;;;2.43;100.00
72423;BME280;60413;55.658;37.498;2023-03-01T07:37:47;98244.13;;;2.51;100.00
72423;BME280;60413;55.658;37.498;2023-03-01T07:40:58;98172.66;;;2.22;100.00
72423;BME280;60413;55.658;37.498;2023-03-01T07:43:53;98204.09;;;2.59;100.00
72423;BME280;60413;55.658;37.498;2023-03-01T07:46:49;98243.41;;;2.76;100.00
72423;BME280;60413;55.658;37.498;2023-03-01T07:49:29;98251.13;;;2.96;100.00
72423;BME280;60413;55.658;37.498;2023-03-01T07:52:41;98190.13;;;2.01;100.00
72423;BME280;60413;55.658;37.498;2023-03-01T07:55:08;98192.69;;;1.36;100.00
72423;BME280;60413;55.658;37.498;2023-03-01T07:57:41;98232.78;;;1.00;100.00
72423;BME280;60413;55.658;37.498;2023-03-01T08:00:11;98176.13;;;0.77;100.00
72423;BME280;60413;55.658;37.498;2023-03-01T08:02:43;98222.22;;;1.15;100.00
72423;BME280;60413;55.658;37.498;2023-03-01T08:05:15;98195.47;;;1.28;100.00
72423;BME280;60413;55.658;37.498;2023-03-01T08:07:51;98180.09;;;1.06;100.00
72423;BME280;60413;55.658;37.498;2023-03-01T08:10:43;98256.41;;;1.52;100.00
72423;BME280;60413;55.658;37.498;2023-03-01T08:13:12;98169.53;;;1.01;100.00
72423;BME280;60413;55.658;37.498;2023-03-01T08:16:09;98223.84;;;1.43;100.00
72423;BME280;60413;55.658;37.498;2023-03-01T08:18:44;98176.44;;;0.34;100.00
72423;BME280;60413;55.658;37.498;2023-03-01T08:21:24;98181.59;;;0.27;100.00
72423;BME280;60413;55.658;37.498;2023-03-01T08:24:37;98234.22;;;0.28;100.00
72423;BME280;60413;55.658;37.498;2023-03-01T08:27:17;98197.28;;;0.12;100.00
72423;BME280;60413;55.658;37.498;2023-03-01T08:30:18;98207.19;;;0.02;100.00
72423;BME280;60413;55.658;37.498;2023-03-01T08:32:50;98195.72;;;0.25;100.00
72423;BME280;60413;55.658;37.498;2023-03-01T08:35:28;98175.19;;;0.30;100.00
72423;BME280;60413;55.658;37.498;2023-03-01T08:41:08;98182.31;;;0.96;100.00
72423;BME280;60413;55.658;37.498;2023-03-01T08:43:38;98196.69;;;1.25;100.00
72423;BME280;60413;55.658;37.498;2023-03-01T08:46:14;98228.22;;;1.02;100.00
72423;BME280;60413;55.658;37.498;2023-03-01T08:48:41;98239.16;;;0.84;100.00
72423;BME280;60413;55.658;37.498;2023-03-01T08:51:17;98179.81;;;0.41;100.00
72423;BME280;60413;55.658;37.498;2023-03-01T09:00:12;98244.50;;;0.63;100.00
72423;BME280;60413;55.658;37.498;2023-03-01T09:03:18;98224.19;;;0.18;100.00
72423;BME280;60413;55.658;37.498;2023-03-01T09:06:16;98235.69;;;0.02;100.00
72423;BME280;60413;55.658;37.498;2023-03-01T09:08:51;98189.16;;;-0.83;100.00
72423;BME280;60413;55.658;37.498;2023-03-01T09:11:43;98223.66;;;-1.40;100.00
72423;BME280;60413;55.658;37.498;2023-03-01T09:14:20;98232.78;;;-1.01;100.00
72423;BME280;60413;55.658;37.498;2023-03-01T09:16:47;98273.91;;;-0.63;100.00
72423;BME280;60413;55.658;37.498;2023-03-01T09:19:15;98200.56;;;-0.70;100.00
72423;BME280;60413;55.658;37.498;2023-03-01T09:21:45;98185.22;;;-0.44;100.00
72423;BME280;60413;55.658;37.498;2023-03-01T09:24:21;98218.84;;;-0.50;100.00
72423;BME280;60413;55.658;37.498;2023-03-01T09:27:10;98287.25;;;-0.10;100.00
72423;BME280;60413;55.658;37.498;2023-03-01T09:29:47;98219.72;;;-0.93;100.00
72423;BME280;60413;55.658;37.498;2023-03-01T09:32:16;98263.72;;;-0.43;100.00
72423;BME280;60413;55.658;37.498;2023-03-01T09:35:08;98271.66;;;-0.45;100.00
72423;BME280;60413;55.658;37.498;2023-03-01T09:37:35;98210.19;;;-0.64;100.00
72423;BME280;60413;55.658;37.498;2023-03-01T09:40:15;98253.69;;;0.10;100.00
72423;BME280;60413;55.658;37.498;2023-03-01T09:43:13;98219.56;;;-0.35;100.00
72423;BME280;60413;55.658;37.498;2023-03-01T09:45:54;98214.34;;;-0.07;100.00
72423;BME280;60413;55.658;37.498;2023-03-01T09:48:27;98205.56;;;-0.06;100.00
72423;BME280;60413;55.658;37.498;2023-03-01T09:54:15;98206.31;;;-1.03;100.00
72423;BME280;60413;55.658;37.498;2023-03-01T09:57:16;98243.41;;;-0.68;100.00
72423;BME280;60413;55.658;37.498;2023-03-01T10:09:27;98227.28;;;-0.91;100.00
72423;BME280;60413;55.658;37.498;2023-03-01T10:12:07;98231.69;;;-0.64;100.00
72423;BME280;60413;55.658;37.498;2023-03-01T10:14:39;98251.34;;;-0.69;100.00
72423;BME280;60413;55.658;37.498;2023-03-01T10:17:27;98242.94;;;-1.21;100.00
72423;BME280;60413;55.658;37.498;2023-03-01T10:19:55;98285.13;;;-0.99;100.00
72423;BME280;60413;55.658;37.498;2023-03-01T10:22:39;98220.59;;;-1.07;100.00
72423;BME280;60413;55.658;37.498;2023-03-01T10:28:31;98232.38;;;-1.41;100.00
72423;BME280;60413;55.658;37.498;2023-03-01T10:31:18;98246.78;;;-1.54;100.00
72423;BME280;60413;55.658;37.498;2023-03-01T10:33:56;98248.13;;;-1.73;100.00
72423;BME280;60413;55.658;37.498;2023-03-01T10:36:32;98258.84;;;-2.20;100.00
72423;BME280;60413;55.658;37.498;2023-03-01T10:38:59;98280.03;;;-2.10;100.00
72423;BME280;60413;55.658;37.498;2023-03-01T10:41:45;98321.63;;;-1.90;100.00
72423;BME280;60413;55.658;37.498;2023-03-01T10:44:42;98310.28;;;-1.89;100.00
72423;BME280;60413;55.658;37.498;2023-03-01T10:47:28;98318.00;;;-2.34;100.00
72423;BME280;60413;55.658;37.498;2023-03-01T10:49:57;98266.94;;;-2.62;100.00
72423;BME280;60413;55.658;37.498;2023-03-01T10:52:37;98282.22;;;-2.37;100.00
72423;BME280;60413;55.658;37.498;2023-03-01T10:58:08;98227.44;;;-2.77;100.00
72423;BME280;60413;55.658;37.498;2023-03-01T11:01:05;98247.94;;;-2.46;100.00
72423;BME280;60413;55.658;37.498;2023-03-01T11:03:37;98246.88;;;-2.36;100.00
72423;BME280;60413;55.658;37.498;2023-03-01T11:06:35;98318.41;;;-1.77;100.00
72423;BME280;60413;55.658;37.498;2023-03-01T11:09:21;98248.69;;;-2.22;100.00
72423;BME280;60413;55.658;37.498;2023-03-01T11:12:00;98230.31;;;-2.57;100.00
72423;BME280;60413;55.658;37.498;2023-03-01T11:14:53;98241.97;;;-2.46;100.00
72423;BME280;60413;55.658;37.498;2023-03-01T11:17:37;98280.06;;;-2.48;100.00
72423;BME280;60413;55.658;37.498;2023-03-01T11:22:53;98264.94;;;-2.51;100.00
72423;BME280;60413;55.658;37.498;2023-03-01T11:28:20;98243.31;;;-2.50;100.00
72423;BME280;60413;55.658;37.498;2023-03-01T11:31:01;98242.19;;;-2.71;100.00
72423;BME280;60413;55.658;37.498;2023-03-01T11:45:30;98309.94;;;-2.01;100.00
72423;BME280;60413;55.658;37.498;2023-03-01T12:08:39;98320.72;;;-2.73;100.00
72423;BME280;60413;55.658;37.498;2023-03-01T12:26:34;98250.16;;;-2.43;100.00
72423;BME280;60413;55.658;37.498;2023-03-01T12:32:03;98328.72;;;-1.92;100.00
72423;BME280;60413;55.658;37.498;2023-03-01T12:40:19;98248.00;;;-2.92;100.00
72423;BME280;60413;55.658;37.498;2023-03-01T12:49:13;98332.34;;;-2.54;100.00
72423;BME280;60413;55.658;37.498;2023-03-01T12:51:54;98254.94;;;-2.92;100.00
72423;BME280;60413;55.658;37.498;2023-03-01T12:54:31;98327.44;;;-2.26;100.00
72423;BME280;60413;55.658;37.498;2023-03-01T13:06:29;98340.72;;;-2.52;100.00
72423;BME280;60413;55.658;37.498;2023-03-01T13:26:05;98341.06;;;-3.02;100.00
72423;BME280;60413;55.658;37.498;2023-03-01T13:31:06;98296.34;;;-3.48;100.00
72423;BME280;60413;55.658;37.498;2023-03-01T13:34:03;98284.63;;;-3.59;100.00
72423;BME280;60413;55.658;37.498;2023-03-01T13:39:28;98318.84;;;-3.34;100.00
72423;BME280;60413;55.658;37.498;2023-03-01T13:41:58;98244.88;;;-3.96;100.00
72423;BME280;60413;55.658;37.498;2023-03-01T13:47:22;98238.91;;;-3.88;100.00
72423;BME280;60413;55.658;37.498;2023-03-01T13:50:03;98313.44;;;-3.56;100.00
72423;BME280;60413;55.658;37.498;2023-03-01T13:53:11;98253.31;;;-3.79;100.00
72423;BME280;60413;55.658;37.498;2023-03-01T13:55:51;98325.69;;;-3.26;100.00
72423;BME280;60413;55.658;37.498;2023-03-01T13:58:28;98243.50;;;-3.67;100.00
72423;BME280;60413;55.658;37.498;2023-03-01T14:01:42;98249.41;;;-3.59;100.00
72423;BME280;60413;55.658;37.498;2023-03-01T14:04:23;98274.84;;;-3.64;100.00
72423;BME280;60413;55.658;37.498;2023-03-01T14:07:10;98306.06;;;-3.59;100.00
72423;BME280;60413;55.658;37.498;2023-03-01T14:09:56;98232.91;;;-4.20;100.00
72423;BME280;60413;55.658;37.498;2023-03-01T14:12:43;98298.34;;;-3.67;100.00
72423;BME280;60413;55.658;37.498;2023-03-01T14:15:50;98309.28;;;-3.65;100.00
72423;BME280;60413;55.658;37.498;2023-03-01T14:21:34;98210.09;;;-4.32;100.00
72423;BME280;60413;55.658;37.498;2023-03-01T14:24:24;98250.19;;;-4.06;100.00
72423;BME280;60413;55.658;37.498;2023-03-01T14:27:02;98301.44;;;-3.72;100.00
72423;BME280;60413;55.658;37.498;2023-03-01T14:29:38;98272.38;;;-3.88;100.00
72423;BME280;60413;55.658;37.498;2023-03-01T14:32:36;98290.66;;;-3.75;100.00
72423;BME280;60413;55.658;37.498;2023-03-01T14:35:51;98276.81;;;-3.74;100.00
72423;BME280;60413;55.658;37.498;2023-03-01T14:38:35;98246.84;;;-4.06;100.00
72423;BME280;60413;55.658;37.498;2023-03-01T14:41:25;98263.72;;;-4.04;100.00
72423;BME280;60413;55.658;37.498;2023-03-01T14:44:05;98198.84;;;-4.39;100.00
72423;BME280;60413;55.658;37.498;2023-03-01T14:46:50;98196.47;;;-4.49;100.00
72423;BME280;60413;55.658;37.498;2023-03-01T14:53:39;98219.53;;;-4.16;100.00
72423;BME280;60413;55.658;37.498;2023-03-01T14:56:14;98244.97;;;-4.21;100.00
72423;BME280;60413;55.658;37.498;2023-03-01T14:58:50;98241.53;;;-4.13;100.00
72423;BME280;60413;55.658;37.498;2023-03-01T15:01:27;98279.59;;;-3.84;100.00
72423;BME280;60413;55.658;37.498;2023-03-01T15:03:54;98265.00;;;-4.08;100.00
72423;BME280;60413;55.658;37.498;2023-03-01T15:06:22;98188.75;;;-4.49;100.00
72423;BME280;60413;55.658;37.498;2023-03-01T15:27:57;98218.97;;;-4.51;100.00
72423;BME280;60413;55.658;37.498;2023-03-01T15:30:27;98228.25;;;-4.33;100.00
72423;BME280;60413;55.658;37.498;2023-03-01T15:33:18;98227.63;;;-4.43;100.00
72423;BME280;60413;55.658;37.498;2023-03-01T15:35:51;98252.34;;;-4.26;100.00
72423;BME280;60413;55.658;37.498;2023-03-01T15:41:21;98221.88;;;-4.45;100.00
72423;BME280;60413;55.658;37.498;2023-03-01T15:44:31;98253.31;;;-4.19;100.00
72423;BME280;60413;55.658;37.498;2023-03-01T15:47:51;98283.50;;;-4.04;100.00
72423;BME280;60413;55.658;37.498;2023-03-01T15:50:25;98255.41;;;-4.14;100.00
72423;BME280;60413;55.658;37.498;2023-03-01T15:57:16;98274.50;;;-4.08;100.00
72423;BME280;60413;55.658;37.498;2023-03-01T15:59:58;98265.41;;;-4.28;100.00
72423;BME280;60413;55.658;37.498;2023-03-01T16:02:30;98231.81;;;-4.42;100.00
72423;BME280;60413;55.658;37.498;2023-03-01T16:05:00;98232.44;;;-4.32;100.00
72423;BME280;60413;55.658;37.498;2023-03-01T16:07:28;98256.69;;;-4.18;100.00
72423;BME280;60413;55.658;37.498;2023-03-01T16:09:59;98283.16;;;-4.01;100.00
72423;BME280;60413;55.658;37.498;2023-03-01T16:12:28;98226.28;;;-4.23;100.00
72423;BME280;60413;55.658;37.498;2023-03-01T16:14:54;98245.72;;;-4.04;100.00
72423;BME280;60413;55.658;37.498;2023-03-01T16:17:34;98232.44;;;-4.24;100.00
72423;BME280;60413;55.658;37.498;2023-03-01T16:20:43;98270.91;;;-3.91;100.00
72423;BME280;60413;55.658;37.498;2023-03-01T16:23:10;98279.44;;;-3.82;100.00
72423;BME280;60413;55.658;37.498;2023-03-01T16:25:39;98245.84;;;-3.97;100.00
72423;BME280;60413;55.658;37.498;2023-03-01T16:28:07;98248.94;;;-4.10;100.00
72423;BME280;60413;55.658;37.498;2023-03-01T16:30:48;98285.72;;;-3.93;100.00
72423;BME280;60413;55.658;37.498;2023-03-01T16:33:17;98253.63;;;-4.14;100.00
72423;BME280;60413;55.658;37.498;2023-03-01T16:35:56;98258.00;;;-4.22;100.00
72423;BME280;60413;55.658;37.498;2023-03-01T16:38:37;98256.69;;;-4.26;100.00
72423;BME280;60413;55.658;37.498;2023-03-01T16:41:17;98216.22;;;-4.41;100.00
72423;BME280;60413;55.658;37.498;2023-03-01T16:44:11;98276.56;;;-3.96;100.00
72423;BME280;60413;55.658;37.498;2023-03-01T16:47:09;98225.19;;;-4.29;100.00
72423;BME280;60413;55.658;37.498;2023-03-01T16:49:55;98226.16;;;-4.30;100.00
72423;BME280;60413;55.658;37.498;2023-03-01T16:52:53;98213.31;;;-4.46;100.00